createdAt,value
2022-09-13T00:00:56.114Z,78.28
2022-09-13T00:01:56.039Z,78.08
2022-09-13T00:02:56.012Z,77.88
2022-09-13T00:03:56.004Z,78.08
2022-09-13T00:04:55.973Z,78.28
2022-09-13T00:05:55.979Z,78.39
2022-09-13T00:06:56.013Z,78.08
2022-09-13T00:07:55.963Z,77.98
2022-09-13T00:08:55.938Z,78.19
2022-09-13T00:09:55.905Z,78.39
2022-09-13T00:10:55.909Z,77.98
2022-09-13T00:11:55.924Z,78.08
2022-09-13T00:12:56.057Z,77.88
2022-09-13T00:13:55.869Z,77.98
2022-09-13T00:14:55.870Z,78.19
2022-09-13T00:15:55.851Z,77.98
2022-09-13T00:16:55.846Z,78.28
2022-09-13T00:17:55.857Z,78.19
2022-09-13T00:18:55.843Z,78.19
2022-09-13T00:19:55.823Z,78.08
2022-09-13T00:20:55.807Z,78.49
2022-09-13T00:21:55.810Z,78.59
2022-09-13T00:22:55.778Z,78.59
2022-09-13T00:23:55.808Z,78.49
2022-09-13T00:24:55.753Z,78.69
2022-09-13T00:25:55.734Z,78.39
2022-09-13T00:26:55.727Z,78.39
2022-09-13T00:27:55.700Z,78.39
2022-09-13T00:28:55.703Z,78.28
2022-09-13T00:29:55.711Z,78.19
2022-09-13T00:30:55.671Z,78.49
2022-09-13T00:31:55.859Z,78.59
2022-09-13T00:32:55.652Z,78.49
2022-09-13T00:33:55.652Z,78.39
2022-09-13T00:34:55.755Z,78.49
2022-09-13T00:35:55.624Z,78.59
2022-09-13T00:36:55.608Z,78.49
2022-09-13T00:37:55.594Z,78.28
2022-09-13T00:38:55.585Z,78.08
2022-09-13T00:39:55.647Z,77.88
2022-09-13T00:40:55.594Z,77.78
2022-09-13T00:41:55.575Z,77.98
2022-09-13T00:42:55.546Z,77.88
2022-09-13T00:43:55.527Z,78.08
2022-09-13T00:44:55.525Z,78.08
2022-09-13T00:45:55.594Z,78.08
2022-09-13T00:46:55.529Z,77.78
2022-09-13T00:47:55.544Z,77.88
2022-09-13T00:48:55.501Z,77.88
2022-09-13T00:49:55.503Z,78.19
2022-09-13T00:50:55.462Z,78.49
2022-09-13T00:51:55.444Z,78.28
2022-09-13T00:52:55.459Z,78.08
2022-09-13T00:53:55.443Z,78.28
2022-09-13T00:54:55.411Z,78.19
2022-09-13T00:55:55.429Z,78.19
2022-09-13T00:56:55.379Z,78.39
2022-09-13T00:57:55.360Z,78.39
2022-09-13T00:58:55.361Z,78.39
2022-09-13T00:59:55.343Z,78.19
2022-09-13T01:00:55.390Z,78.19
2022-09-13T01:01:56.590Z,78.59
2022-09-13T01:02:55.317Z,78.49
2022-09-13T01:03:55.296Z,78.49
2022-09-13T01:04:55.296Z,78.69
2022-09-13T01:05:55.276Z,78.59
2022-09-13T01:06:55.345Z,78.89
2022-09-13T01:07:55.254Z,78.79
2022-09-13T01:08:55.267Z,79.19
2022-09-13T01:09:55.227Z,79.19
2022-09-13T01:10:55.248Z,79.19
2022-09-13T01:11:55.203Z,79.19
2022-09-13T01:12:55.201Z,79.23
2022-09-13T01:13:56.175Z,79.53
2022-09-13T01:14:55.177Z,79.73
2022-09-13T01:15:55.168Z,79.43
2022-09-13T01:16:55.207Z,80.13
2022-09-13T01:17:55.139Z,80.13
2022-09-13T01:18:55.146Z,79.93
2022-09-13T01:19:55.127Z,80.04
2022-09-13T01:20:55.113Z,80.24
2022-09-13T01:21:55.125Z,79.93
2022-09-13T01:22:55.087Z,80.24
2022-09-13T01:23:55.065Z,80.04
2022-09-13T01:24:55.091Z,79.83
2022-09-13T01:25:55.071Z,80.04
2022-09-13T01:26:55.729Z,79.93
2022-09-13T01:27:55.037Z,79.63
2022-09-13T01:28:55.025Z,79.73
2022-09-13T01:29:55.024Z,79.73
2022-09-13T01:30:55.005Z,79.63
2022-09-13T01:31:55.052Z,79.53
2022-09-13T01:32:54.977Z,79.63
2022-09-13T01:33:54.952Z,79.73
2022-09-13T01:34:54.952Z,79.83
2022-09-13T01:35:54.943Z,79.83
2022-09-13T01:36:54.936Z,79.63
2022-09-13T01:37:54.952Z,79.63
2022-09-13T01:38:54.903Z,79.43
2022-09-13T01:39:54.931Z,79.33
2022-09-13T01:40:54.889Z,79.43
2022-09-13T01:41:54.875Z,79.33
2022-09-13T01:42:54.859Z,79.13
2022-09-13T01:43:54.877Z,79.23
2022-09-13T01:44:54.856Z,79.03
2022-09-13T01:45:54.942Z,79.03
2022-09-13T01:46:54.858Z,79.23
2022-09-13T01:47:54.796Z,79.03
2022-09-13T01:48:54.841Z,79.03
2022-09-13T01:49:54.795Z,78.92
2022-09-13T01:50:54.778Z,78.92
2022-09-13T01:51:54.794Z,78.92
2022-09-13T01:52:54.752Z,78.92
2022-09-13T01:53:54.738Z,78.83
2022-09-13T01:54:54.759Z,78.72
2022-09-13T01:55:54.709Z,79.03
2022-09-13T01:56:54.722Z,79.03
2022-09-13T01:57:54.701Z,78.83
2022-09-13T01:58:54.687Z,78.92
2022-09-13T01:59:54.681Z,78.89
2022-09-13T02:00:54.724Z,78.99
2022-09-13T02:01:54.688Z,78.79
2022-09-13T02:02:54.661Z,78.69
2022-09-13T02:03:54.642Z,78.39
2022-09-13T02:04:54.616Z,78.28
2022-09-13T02:05:54.603Z,78.28
2022-09-13T02:06:54.622Z,78.08
2022-09-13T02:07:54.588Z,78.08
2022-09-13T02:08:54.583Z,78.19
2022-09-13T02:09:54.558Z,78.39
2022-09-13T02:10:54.551Z,78.49
2022-09-13T02:11:54.549Z,78.49
2022-09-13T02:12:54.552Z,78.39
2022-09-13T02:13:54.525Z,78.28
2022-09-13T02:14:54.501Z,78.49
2022-09-13T02:15:54.523Z,78.69
2022-09-13T02:16:54.476Z,78.59
2022-09-13T02:17:54.486Z,78.39
2022-09-13T02:18:54.458Z,78.39
2022-09-13T02:19:54.436Z,78.39
2022-09-13T02:20:54.447Z,78.19
2022-09-13T02:21:54.459Z,78.39
2022-09-13T02:22:54.441Z,78.39
2022-09-13T02:23:54.408Z,78.19
2022-09-13T02:24:54.389Z,78.08
2022-09-13T02:25:54.457Z,78.08
2022-09-13T02:26:54.379Z,78.19
2022-09-13T02:27:54.418Z,78.28
2022-09-13T02:28:54.349Z,78.39
2022-09-13T02:29:54.329Z,78.39
2022-09-13T02:30:54.331Z,78.39
2022-09-13T02:31:54.358Z,78.49
2022-09-13T02:32:54.310Z,78.59
2022-09-13T02:33:54.327Z,78.39
2022-09-13T02:34:54.271Z,78.39
2022-09-13T02:35:54.299Z,78.39
2022-09-13T02:36:54.262Z,78.39
2022-09-13T02:37:54.316Z,78.19
2022-09-13T02:38:54.236Z,78.39
2022-09-13T02:39:54.268Z,78.49
2022-09-13T02:40:54.204Z,78.59
2022-09-13T02:41:55.175Z,78.72
2022-09-13T02:42:54.214Z,78.72
2022-09-13T02:43:54.212Z,78.89
2022-09-13T02:44:54.176Z,78.59
2022-09-13T02:45:54.281Z,78.72
2022-09-13T02:46:54.159Z,78.72
2022-09-13T02:47:54.175Z,78.92
2022-09-13T02:48:54.154Z,78.79
2022-09-13T02:49:54.146Z,78.92
2022-09-13T02:50:54.104Z,79.03
2022-09-13T02:51:54.107Z,79.03
2022-09-13T02:52:54.077Z,78.92
2022-09-13T02:53:54.067Z,78.83
2022-09-13T02:54:54.081Z,78.92
2022-09-13T02:55:54.080Z,78.92
2022-09-13T02:56:54.043Z,78.92
2022-09-13T02:57:54.058Z,78.72
2022-09-13T02:58:54.026Z,78.72
2022-09-13T02:59:54.042Z,78.83
2022-09-13T03:00:54.021Z,78.79
2022-09-13T03:01:54.018Z,78.89
2022-09-13T03:02:53.969Z,78.99
2022-09-13T03:03:54.030Z,78.99
2022-09-13T03:04:53.983Z,78.89
2022-09-13T03:05:53.944Z,79.09
2022-09-13T03:06:54.889Z,78.99
2022-09-13T03:07:53.913Z,78.79
2022-09-13T03:08:53.978Z,78.79
2022-09-13T03:09:53.905Z,78.39
2022-09-13T03:10:53.897Z,78.28
2022-09-13T03:11:53.886Z,78.39
2022-09-13T03:12:53.870Z,78.28
2022-09-13T03:13:53.879Z,78.28
2022-09-13T03:14:53.845Z,78.39
2022-09-13T03:15:53.834Z,78.39
2022-09-13T03:16:53.940Z,78.39
2022-09-13T03:17:53.820Z,78.39
2022-09-13T03:18:53.808Z,78.49
2022-09-13T03:19:53.785Z,78.49
2022-09-13T03:20:53.776Z,78.59
2022-09-13T03:21:53.756Z,78.79
2022-09-13T03:22:53.779Z,79.09
2022-09-13T03:23:53.768Z,79.19
2022-09-13T03:24:53.751Z,79.09
2022-09-13T03:25:54.704Z,80.00
2022-09-13T03:26:53.700Z,80.20
2022-09-13T03:27:53.717Z,80.60
2022-09-13T03:28:53.729Z,80.60
2022-09-13T03:29:53.699Z,80.90
2022-09-13T03:30:54.627Z,80.80
2022-09-13T03:31:53.675Z,81.01
2022-09-13T03:32:53.630Z,81.21
2022-09-13T03:33:53.640Z,81.41
2022-09-13T03:34:53.652Z,81.61
2022-09-13T03:35:53.653Z,82.11
2022-09-13T03:36:54.567Z,82.11
2022-09-13T03:37:53.600Z,82.31
2022-09-13T03:38:53.605Z,82.51
2022-09-13T03:39:53.661Z,82.62
2022-09-13T03:40:53.566Z,82.65
2022-09-13T03:41:53.569Z,82.86
2022-09-13T03:42:53.545Z,83.66
2022-09-13T03:43:53.551Z,83.36
2022-09-13T03:44:53.518Z,83.56
2022-09-13T03:45:53.638Z,84.07
2022-09-13T03:46:53.501Z,84.37
2022-09-13T03:47:53.486Z,84.47
2022-09-13T03:48:53.456Z,84.67
2022-09-13T03:49:53.455Z,84.77
2022-09-13T03:50:53.469Z,84.67
2022-09-13T03:51:53.439Z,84.88
2022-09-13T03:52:53.417Z,85.11
2022-09-13T03:53:53.432Z,85.52
2022-09-13T03:54:53.396Z,85.62
2022-09-13T03:55:53.395Z,85.62
2022-09-13T03:56:53.395Z,85.62
2022-09-13T03:57:53.367Z,85.62
2022-09-13T03:58:53.353Z,85.62
2022-09-13T03:59:54.319Z,85.52
2022-09-13T04:00:53.348Z,85.62
2022-09-13T04:01:53.689Z,85.62
2022-09-13T04:02:53.340Z,85.31
2022-09-13T04:03:56.773Z,85.52
2022-09-13T04:04:54.244Z,85.82
2022-09-13T04:05:53.284Z,85.82
2022-09-13T04:06:53.270Z,85.72
2022-09-13T04:07:53.577Z,86.13
2022-09-13T04:08:53.286Z,86.36
2022-09-13T04:09:53.237Z,86.07
2022-09-13T04:10:53.234Z,86.57
2022-09-13T04:11:53.224Z,86.57
2022-09-13T04:12:53.211Z,86.67
2022-09-13T04:13:53.181Z,86.87
2022-09-13T04:14:53.447Z,86.87
2022-09-13T04:15:53.209Z,86.87
2022-09-13T04:16:53.152Z,87.07
2022-09-13T04:17:53.350Z,86.67
2022-09-13T04:18:53.153Z,86.87
2022-09-13T04:19:53.137Z,86.97
2022-09-13T04:20:53.106Z,87.27
2022-09-13T04:21:53.733Z,87.07
2022-09-13T04:22:53.282Z,87.48
2022-09-13T04:23:53.458Z,87.78
2022-09-13T04:24:53.067Z,87.78
2022-09-13T04:25:53.060Z,87.58
2022-09-13T04:26:53.667Z,87.38
2022-09-13T04:27:53.067Z,87.48
2022-09-13T04:28:53.077Z,87.48
2022-09-13T04:29:53.029Z,87.48
2022-09-13T04:30:53.033Z,87.68
2022-09-13T04:31:53.147Z,87.88
2022-09-13T04:32:53.168Z,87.78
2022-09-13T04:33:53.450Z,87.78
2022-09-13T04:34:53.010Z,87.78
2022-09-13T04:35:53.933Z,87.88
2022-09-13T04:36:53.803Z,87.88
2022-09-13T04:37:53.013Z,87.88
2022-09-13T04:38:52.915Z,87.88
2022-09-13T04:39:52.971Z,87.78
2022-09-13T04:40:52.903Z,87.88
2022-09-13T04:41:52.895Z,87.98
2022-09-13T04:42:54.346Z,87.58
2022-09-13T04:43:52.887Z,87.48
2022-09-13T04:44:52.847Z,87.27
2022-09-13T04:45:52.879Z,87.18
2022-09-13T04:46:52.838Z,87.18
2022-09-13T04:47:52.835Z,87.27
2022-09-13T04:48:52.836Z,87.27
2022-09-13T04:49:52.826Z,87.27
2022-09-13T04:50:52.790Z,87.07
2022-09-13T04:51:52.788Z,86.97
2022-09-13T04:52:52.756Z,87.07
2022-09-13T04:53:52.768Z,87.07
2022-09-13T04:54:52.760Z,86.87
2022-09-13T04:55:52.782Z,86.97
2022-09-13T04:56:52.708Z,87.18
2022-09-13T04:57:53.667Z,87.18
2022-09-13T04:58:52.702Z,87.48
2022-09-13T04:59:52.729Z,87.48
2022-09-13T05:00:52.718Z,87.38
2022-09-13T05:01:52.704Z,87.27
2022-09-13T05:02:52.647Z,87.38
2022-09-13T05:03:52.690Z,87.18
2022-09-13T05:04:52.749Z,87.27
2022-09-13T05:05:52.670Z,87.48
2022-09-13T05:06:52.625Z,87.18
2022-09-13T05:07:52.592Z,87.38
2022-09-13T05:08:52.580Z,87.27
2022-09-13T05:09:52.620Z,87.27
2022-09-13T05:10:52.553Z,87.38
2022-09-13T05:11:52.552Z,87.38
2022-09-13T05:12:52.559Z,87.48
2022-09-13T05:13:52.556Z,87.58
2022-09-13T05:14:52.513Z,87.58
2022-09-13T05:15:52.560Z,87.68
2022-09-13T05:16:52.522Z,87.82
2022-09-13T05:17:52.476Z,87.78
2022-09-13T05:18:52.546Z,87.82
2022-09-13T05:19:52.464Z,87.82
2022-09-13T05:20:52.454Z,88.02
2022-09-13T05:21:52.464Z,88.12
2022-09-13T05:22:52.455Z,87.82
2022-09-13T05:23:52.430Z,87.72
2022-09-13T05:24:52.425Z,87.72
2022-09-13T05:25:53.356Z,87.82
2022-09-13T05:26:52.417Z,87.98
2022-09-13T05:27:52.713Z,88.18
2022-09-13T05:28:52.366Z,87.78
2022-09-13T05:29:52.377Z,87.68
2022-09-13T05:30:52.449Z,87.68
2022-09-13T05:31:52.336Z,87.58
2022-09-13T05:32:52.750Z,87.48
2022-09-13T05:33:52.339Z,87.27
2022-09-13T05:34:52.305Z,87.18
2022-09-13T05:35:52.302Z,87.27
2022-09-13T05:36:54.353Z,87.18
2022-09-13T05:37:52.274Z,87.07
2022-09-13T05:39:06.515Z,87.07
2022-09-13T05:40:11.691Z,87.07
2022-09-13T05:40:53.304Z,86.77
2022-09-13T05:41:52.767Z,86.67
2022-09-13T05:42:54.166Z,86.87
2022-09-13T05:43:57.955Z,86.77
2022-09-13T05:44:53.684Z,86.77
2022-09-13T05:45:52.400Z,86.77
2022-09-13T05:46:52.177Z,86.87
2022-09-13T05:47:53.115Z,87.27
2022-09-13T05:48:52.744Z,87.38
2022-09-13T05:50:09.356Z,87.38
2022-09-13T05:51:00.306Z,87.38
2022-09-13T05:51:53.153Z,87.27
2022-09-13T05:52:52.451Z,87.27
2022-09-13T05:53:52.148Z,87.27
2022-09-13T05:54:52.427Z,87.18
2022-09-13T05:55:52.155Z,87.18
2022-09-13T05:56:52.163Z,87.18
2022-09-13T05:57:52.126Z,86.93
2022-09-13T05:58:52.252Z,87.03
2022-09-13T05:59:52.220Z,87.13
2022-09-13T06:00:52.030Z,87.34
2022-09-13T06:01:52.225Z,87.34
2022-09-13T06:02:52.142Z,87.13
2022-09-13T06:03:52.273Z,86.73
2022-09-13T06:04:51.988Z,86.53
2022-09-13T06:05:51.996Z,86.53
2022-09-13T06:06:51.973Z,86.53
2022-09-13T06:07:51.965Z,86.33
2022-09-13T06:08:51.982Z,86.43
2022-09-13T06:09:51.913Z,86.43
2022-09-13T06:10:51.904Z,86.33
2022-09-13T06:11:51.900Z,86.22
2022-09-13T06:12:51.964Z,86.13
2022-09-13T06:13:51.876Z,86.22
2022-09-13T06:14:51.871Z,86.43
2022-09-13T06:15:52.012Z,86.38
2022-09-13T06:16:51.851Z,86.49
2022-09-13T06:17:51.881Z,86.49
2022-09-13T06:18:51.864Z,86.58
2022-09-13T06:19:51.817Z,86.49
2022-09-13T06:20:52.006Z,86.58
2022-09-13T06:21:51.773Z,86.58
2022-09-13T06:22:51.775Z,86.49
2022-09-13T06:23:51.765Z,86.49
2022-09-13T06:24:51.774Z,86.49
2022-09-13T06:25:51.739Z,86.29
2022-09-13T06:26:53.183Z,86.08
2022-09-13T06:27:52.397Z,85.98
2022-09-13T06:28:51.750Z,85.98
2022-09-13T06:29:51.728Z,85.98
2022-09-13T06:30:51.748Z,85.98
2022-09-13T06:31:51.674Z,85.68
2022-09-13T06:32:51.672Z,85.68
2022-09-13T06:33:51.655Z,85.88
2022-09-13T06:34:51.688Z,85.78
2022-09-13T06:35:51.650Z,85.68
2022-09-13T06:36:51.792Z,85.54
2022-09-13T06:37:51.599Z,85.34
2022-09-13T06:38:51.598Z,85.14
2022-09-13T06:39:51.620Z,85.24
2022-09-13T06:40:51.664Z,85.14
2022-09-13T06:41:51.577Z,84.94
2022-09-13T06:42:51.573Z,84.74
2022-09-13T06:43:52.503Z,84.74
2022-09-13T06:44:51.571Z,84.63
2022-09-13T06:45:51.588Z,84.59
2022-09-13T06:46:51.511Z,84.59
2022-09-13T06:47:51.500Z,84.39
2022-09-13T06:48:51.506Z,84.39
2022-09-13T06:49:51.884Z,84.29
2022-09-13T06:50:51.482Z,84.29
2022-09-13T06:51:52.406Z,84.29
2022-09-13T06:52:51.455Z,84.29
2022-09-13T06:53:51.854Z,84.29
2022-09-13T06:54:51.846Z,83.99
2022-09-13T06:55:51.446Z,83.84
2022-09-13T06:56:51.500Z,83.65
2022-09-13T06:57:51.421Z,83.54
2022-09-13T06:58:52.330Z,83.65
2022-09-13T06:59:51.360Z,83.65
2022-09-13T07:00:55.949Z,83.84
2022-09-13T07:01:51.425Z,83.84
2022-09-13T07:02:51.342Z,83.75
2022-09-13T07:03:51.328Z,83.75
2022-09-13T07:04:51.311Z,83.45
2022-09-13T07:05:51.298Z,83.14
2022-09-13T07:06:51.332Z,83.11
2022-09-13T07:07:52.237Z,83.00
2022-09-13T07:08:51.545Z,82.80
2022-09-13T07:09:51.249Z,82.70
2022-09-13T07:10:51.243Z,82.60
2022-09-13T07:11:51.243Z,82.30
2022-09-13T07:12:51.251Z,82.30
2022-09-13T07:13:51.203Z,82.30
2022-09-13T07:14:51.203Z,82.30
2022-09-13T07:15:51.274Z,82.36
2022-09-13T07:16:51.206Z,82.06
2022-09-13T07:17:51.173Z,82.06
2022-09-13T07:18:51.156Z,81.85
2022-09-13T07:19:51.171Z,81.76
2022-09-13T07:20:51.171Z,81.56
2022-09-13T07:21:52.587Z,81.65
2022-09-13T07:22:51.118Z,81.65
2022-09-13T07:23:51.119Z,81.46
2022-09-13T07:24:51.124Z,81.46
2022-09-13T07:25:51.192Z,81.35
2022-09-13T07:26:51.068Z,80.95
2022-09-13T07:27:51.055Z,80.65
2022-09-13T07:28:51.059Z,80.41
2022-09-13T07:29:51.065Z,80.21
2022-09-13T07:30:51.056Z,80.11
2022-09-13T07:31:51.025Z,79.91
2022-09-13T07:32:51.038Z,79.81
2022-09-13T07:33:51.001Z,79.50
2022-09-13T07:34:50.987Z,79.41
2022-09-13T07:35:50.975Z,79.21
2022-09-13T07:36:50.996Z,79.17
2022-09-13T07:37:50.972Z,78.97
2022-09-13T07:38:50.945Z,78.97
2022-09-13T07:39:50.971Z,78.97
2022-09-13T07:40:50.951Z,78.97
2022-09-13T07:41:50.963Z,78.77
2022-09-13T07:42:50.895Z,78.66
2022-09-13T07:43:50.935Z,78.77
2022-09-13T07:44:52.351Z,78.63
2022-09-13T07:45:50.954Z,78.53
2022-09-13T07:46:51.686Z,78.42
2022-09-13T07:47:50.873Z,78.42
2022-09-13T07:48:50.822Z,78.22
2022-09-13T07:49:50.824Z,78.22
2022-09-13T07:50:50.827Z,78.22
2022-09-13T07:51:50.794Z,78.03
2022-09-13T07:52:50.782Z,77.92
2022-09-13T07:53:55.043Z,77.79
2022-09-13T07:54:51.756Z,77.48
2022-09-13T07:55:50.743Z,77.28
2022-09-13T07:56:50.776Z,77.19
2022-09-13T07:57:50.733Z,76.98
2022-09-13T07:58:50.727Z,76.98
2022-09-13T07:59:50.734Z,76.98
2022-09-13T08:00:50.715Z,76.75
2022-09-13T08:01:50.780Z,76.54
2022-09-13T08:02:50.704Z,76.65
2022-09-13T08:03:50.700Z,76.54
2022-09-13T08:04:50.673Z,76.25
2022-09-13T08:05:50.640Z,75.84
2022-09-13T08:06:50.655Z,75.64
2022-09-13T08:07:52.062Z,75.84
2022-09-13T08:08:50.614Z,76.15
2022-09-13T08:09:50.610Z,75.95
2022-09-13T08:10:50.601Z,76.04
2022-09-13T08:11:50.605Z,76.15
2022-09-13T08:12:50.569Z,75.95
2022-09-13T08:13:50.653Z,75.84
2022-09-13T08:14:51.516Z,75.64
2022-09-13T08:15:50.579Z,75.51
2022-09-13T08:16:50.570Z,75.41
2022-09-13T08:17:50.643Z,74.71
2022-09-13T08:18:50.501Z,74.51
2022-09-13T08:19:50.489Z,74.51
2022-09-13T08:20:51.423Z,74.71
2022-09-13T08:21:51.415Z,74.80
2022-09-13T08:22:50.465Z,74.40
2022-09-13T08:23:51.397Z,74.30
2022-09-13T08:24:50.446Z,74.37
2022-09-13T08:25:50.423Z,74.27
2022-09-13T08:26:50.435Z,74.07
2022-09-13T08:27:50.420Z,74.07
2022-09-13T08:28:50.426Z,74.07
2022-09-13T08:29:50.462Z,74.33
2022-09-13T08:30:50.410Z,73.43
2022-09-13T08:31:51.851Z,73.43
2022-09-13T08:32:50.344Z,72.53
2022-09-13T08:33:50.682Z,72.43
2022-09-13T08:34:50.517Z,72.43
2022-09-13T08:35:50.300Z,72.43
2022-09-13T08:36:50.301Z,72.23
2022-09-13T08:37:50.294Z,72.63
2022-09-13T08:38:51.729Z,72.63
2022-09-13T08:39:50.346Z,72.43
2022-09-13T08:40:50.265Z,72.19
2022-09-13T08:41:50.385Z,72.09
2022-09-13T08:42:50.251Z,72.19
2022-09-13T08:43:50.378Z,72.09
2022-09-13T08:44:50.216Z,72.50
2022-09-13T08:45:51.183Z,72.19
2022-09-13T08:46:51.652Z,72.00
2022-09-13T08:47:50.222Z,71.56
2022-09-13T08:48:50.165Z,71.46
2022-09-13T08:49:50.154Z,71.26
2022-09-13T08:50:50.148Z,71.36
2022-09-13T08:51:50.141Z,71.26
2022-09-13T08:52:50.134Z,71.26
2022-09-13T08:53:50.268Z,71.46
2022-09-13T08:54:50.848Z,71.56
2022-09-13T08:55:50.107Z,71.66
2022-09-13T08:56:50.074Z,71.66
2022-09-13T08:57:50.087Z,71.56
2022-09-13T08:58:50.056Z,71.42
2022-09-13T08:59:50.101Z,71.73
2022-09-13T09:00:50.050Z,71.83
2022-09-13T09:01:50.146Z,72.13
2022-09-13T09:02:50.142Z,72.03
2022-09-13T09:03:50.171Z,71.62
2022-09-13T09:04:49.991Z,71.03
2022-09-13T09:05:49.971Z,70.92
2022-09-13T09:06:49.993Z,70.79
2022-09-13T09:07:49.953Z,70.49
2022-09-13T09:08:49.966Z,70.39
2022-09-13T09:09:50.105Z,70.49
2022-09-13T09:10:49.985Z,70.53
2022-09-13T09:11:50.104Z,70.59
2022-09-13T09:12:49.928Z,70.89
2022-09-13T09:13:50.143Z,70.89
2022-09-13T09:14:50.853Z,70.89
2022-09-13T09:15:49.892Z,70.99
2022-09-13T09:16:49.858Z,70.99
2022-09-13T09:17:49.832Z,70.99
2022-09-13T09:18:49.845Z,70.89
2022-09-13T09:19:49.863Z,70.79
2022-09-13T09:20:49.814Z,70.76
2022-09-13T09:21:49.801Z,70.76
2022-09-13T09:22:49.801Z,70.16
2022-09-13T09:23:49.866Z,70.06
2022-09-13T09:24:49.760Z,70.36
2022-09-13T09:25:49.772Z,69.96
2022-09-13T09:26:50.718Z,69.86
2022-09-13T09:27:49.754Z,69.76
2022-09-13T09:28:50.699Z,69.86
2022-09-13T09:29:49.697Z,69.86
2022-09-13T09:30:49.773Z,69.96
2022-09-13T09:31:49.709Z,70.32
2022-09-13T09:32:49.679Z,70.32
2022-09-13T09:33:49.989Z,70.53
2022-09-13T09:34:49.661Z,70.03
2022-09-13T09:35:49.655Z,69.53
2022-09-13T09:36:49.633Z,69.53
2022-09-13T09:37:49.631Z,69.32
2022-09-13T09:38:49.630Z,69.53
2022-09-13T09:39:49.702Z,69.62
2022-09-13T09:40:49.594Z,69.73
2022-09-13T09:41:49.602Z,69.23
2022-09-13T09:42:49.610Z,69.13
2022-09-13T09:43:49.642Z,69.02
2022-09-13T09:44:49.568Z,69.02
2022-09-13T09:45:49.605Z,68.99
2022-09-13T09:46:49.517Z,68.89
2022-09-13T09:47:49.518Z,68.79
2022-09-13T09:48:49.537Z,68.59
2022-09-13T09:49:49.487Z,68.49
2022-09-13T09:50:49.489Z,68.29
2022-09-13T09:51:49.466Z,67.69
2022-09-13T09:52:49.457Z,67.80
2022-09-13T09:53:49.612Z,67.99
2022-09-13T09:54:49.467Z,68.26
2022-09-13T09:55:49.426Z,68.56
2022-09-13T09:56:49.581Z,66.96
2022-09-13T09:57:49.549Z,66.86
2022-09-13T09:58:49.408Z,66.86
2022-09-13T09:59:49.692Z,66.96
2022-09-13T10:00:50.319Z,67.03
2022-09-13T10:01:49.751Z,67.23
2022-09-13T10:02:49.432Z,67.43
2022-09-13T10:03:50.159Z,66.93
2022-09-13T10:04:49.329Z,66.53
2022-09-13T10:05:50.133Z,66.50
2022-09-13T10:06:49.777Z,66.20
2022-09-13T10:07:49.442Z,66.20
2022-09-13T10:08:49.314Z,66.10
2022-09-13T10:09:49.275Z,66.10
2022-09-13T10:10:49.335Z,66.00
2022-09-13T10:11:50.163Z,66.10
2022-09-13T10:12:49.684Z,66.20
2022-09-13T10:13:49.294Z,66.07
2022-09-13T10:14:49.255Z,66.17
2022-09-13T10:15:49.254Z,66.17
2022-09-13T10:16:50.218Z,66.17
2022-09-13T10:17:49.224Z,65.57
2022-09-13T10:18:49.181Z,65.57
2022-09-13T10:19:49.269Z,65.27
2022-09-13T10:20:49.198Z,65.37
2022-09-13T10:21:49.183Z,65.37
2022-09-13T10:22:49.227Z,65.37
2022-09-13T10:23:49.217Z,64.87
2022-09-13T10:24:49.183Z,64.67
2022-09-13T10:25:49.129Z,64.87
2022-09-13T10:26:49.331Z,64.18
2022-09-13T10:27:49.078Z,63.88
2022-09-13T10:28:49.156Z,63.98
2022-09-13T10:29:49.089Z,64.07
2022-09-13T10:30:49.074Z,64.07
2022-09-13T10:31:49.065Z,64.37
2022-09-13T10:32:50.172Z,63.98
2022-09-13T10:33:49.015Z,63.88
2022-09-13T10:34:49.024Z,64.04
2022-09-13T10:35:49.017Z,63.65
2022-09-13T10:36:52.424Z,63.95
2022-09-13T10:37:49.086Z,64.45
2022-09-13T10:38:49.220Z,64.54
2022-09-13T10:39:48.965Z,64.64
2022-09-13T10:40:48.954Z,64.84
2022-09-13T10:41:48.944Z,64.72
2022-09-13T10:42:48.929Z,63.92
2022-09-13T10:43:48.919Z,63.42
2022-09-13T10:44:48.899Z,63.02
2022-09-13T10:45:48.955Z,63.02
2022-09-13T10:46:48.880Z,62.42
2022-09-13T10:47:48.890Z,62.19
2022-09-13T10:48:48.925Z,61.69
2022-09-13T10:49:48.852Z,62.49
2022-09-13T10:50:48.835Z,62.59
2022-09-13T10:51:48.837Z,62.69
2022-09-13T10:52:48.860Z,62.69
2022-09-13T10:53:48.844Z,62.16
2022-09-13T10:54:48.779Z,61.67
2022-09-13T10:55:48.782Z,61.77
2022-09-13T10:56:48.767Z,60.97
2022-09-13T10:57:48.805Z,61.37
2022-09-13T10:58:49.761Z,61.47
2022-09-13T10:59:48.731Z,60.68
2022-09-13T11:00:48.795Z,60.77
2022-09-13T11:01:48.848Z,61.07
2022-09-13T11:02:48.702Z,60.77
2022-09-13T11:03:48.749Z,61.07
2022-09-13T11:04:48.711Z,61.57
2022-09-13T11:05:48.675Z,61.64
2022-09-13T11:06:48.654Z,61.04
2022-09-13T11:07:48.645Z,59.95
2022-09-13T11:08:48.629Z,59.78
2022-09-13T11:09:48.643Z,60.27
2022-09-13T11:10:48.627Z,60.57
2022-09-13T11:11:48.886Z,61.37
2022-09-13T11:12:48.595Z,61.07
2022-09-13T11:13:48.676Z,61.87
2022-09-13T11:14:48.584Z,61.07
2022-09-13T11:15:49.528Z,61.07
2022-09-13T11:16:48.635Z,61.17
2022-09-13T11:17:48.565Z,61.07
2022-09-13T11:18:48.520Z,60.87
2022-09-13T11:19:48.533Z,61.27
2022-09-13T11:20:48.490Z,61.83
2022-09-13T11:21:48.529Z,61.44
2022-09-13T11:22:48.500Z,60.55
2022-09-13T11:23:48.583Z,60.35
2022-09-13T11:24:48.471Z,60.55
2022-09-13T11:25:48.440Z,60.52
2022-09-13T11:26:48.469Z,61.01
2022-09-13T11:27:48.433Z,60.82
2022-09-13T11:28:48.429Z,60.22
2022-09-13T11:29:48.413Z,60.31
2022-09-13T11:30:48.409Z,60.42
2022-09-13T11:31:48.462Z,60.12
2022-09-13T11:32:48.414Z,59.12
2022-09-13T11:33:48.511Z,58.92
2022-09-13T11:34:48.369Z,59.12
2022-09-13T11:35:48.352Z,58.92
2022-09-13T11:36:48.338Z,59.03
2022-09-13T11:37:48.328Z,59.52
2022-09-13T11:38:48.415Z,59.72
2022-09-13T11:39:48.340Z,60.52
2022-09-13T11:40:48.288Z,60.19
2022-09-13T11:41:48.298Z,60.58
2022-09-13T11:42:48.277Z,60.69
2022-09-13T11:43:49.914Z,60.78
2022-09-13T11:44:48.270Z,60.69
2022-09-13T11:45:48.297Z,59.79
2022-09-13T11:46:48.230Z,59.76
2022-09-13T11:47:48.217Z,59.56
2022-09-13T11:48:49.047Z,59.47
2022-09-13T11:49:48.352Z,60.06
2022-09-13T11:50:48.210Z,60.26
2022-09-13T11:51:48.193Z,60.66
2022-09-13T11:52:48.165Z,60.16
2022-09-13T11:53:48.316Z,59.86
2022-09-13T11:54:48.162Z,59.86
2022-09-13T11:55:48.130Z,59.86
2022-09-13T11:56:48.134Z,60.16
2022-09-13T11:57:48.108Z,59.56
2022-09-13T11:58:48.100Z,59.86
2022-09-13T11:59:48.100Z,59.86
2022-09-13T12:00:49.534Z,59.66
2022-09-13T12:01:48.925Z,59.96
2022-09-13T12:02:48.176Z,60.23
2022-09-13T12:03:48.836Z,60.43
2022-09-13T12:05:11.012Z,60.23
2022-09-13T12:05:49.038Z,59.83
2022-09-13T12:06:48.037Z,59.83
2022-09-13T12:07:48.046Z,59.93
2022-09-13T12:08:48.053Z,59.53
2022-09-13T12:09:47.968Z,59.74
2022-09-13T12:10:47.995Z,59.63
2022-09-13T12:11:47.961Z,59.80
2022-09-13T12:12:48.020Z,59.14
2022-09-13T12:13:48.021Z,59.34
2022-09-13T12:14:47.913Z,59.44
2022-09-13T12:15:47.950Z,59.74
2022-09-13T12:16:47.953Z,60.33
2022-09-13T12:17:48.719Z,60.30
2022-09-13T12:18:47.879Z,59.91
2022-09-13T12:19:48.234Z,59.61
2022-09-13T12:20:47.863Z,59.31
2022-09-13T12:21:47.896Z,59.31
2022-09-13T12:22:47.887Z,59.38
2022-09-13T12:23:47.816Z,58.98
2022-09-13T12:24:47.845Z,58.56
2022-09-13T12:25:47.914Z,57.86
2022-09-13T12:26:47.786Z,57.34
2022-09-13T12:27:47.815Z,56.82
2022-09-13T12:28:48.224Z,56.82
2022-09-13T12:29:47.778Z,56.79
2022-09-13T12:30:47.749Z,56.67
2022-09-13T12:31:47.803Z,56.44
2022-09-13T12:32:47.761Z,55.62
2022-09-13T12:33:47.730Z,54.41
2022-09-13T12:34:47.705Z,54.80
2022-09-13T12:35:47.995Z,54.83
2022-09-13T12:36:47.683Z,54.80
2022-09-13T12:37:47.679Z,54.48
2022-09-13T12:38:47.707Z,54.26
2022-09-13T12:39:47.711Z,53.05
2022-09-13T12:40:47.641Z,52.36
2022-09-13T12:41:47.801Z,52.78
2022-09-13T12:42:47.875Z,52.78
2022-09-13T12:43:47.623Z,51.79
2022-09-13T12:44:47.629Z,51.77
2022-09-13T12:45:47.656Z,51.45
2022-09-13T12:46:47.587Z,51.35
2022-09-13T12:47:47.578Z,50.93
2022-09-13T12:48:47.557Z,50.51
2022-09-13T12:49:47.564Z,50.49
2022-09-13T12:50:47.534Z,50.66
2022-09-13T12:51:48.330Z,49.68
2022-09-13T12:52:48.482Z,49.87